sensor_id;sensor_type;location;lat;lon;timestamp;P1;durP1;ratioP1;P2;durP2;ratioP2
2213;SDS011;1113;42.018;23.986;2022-10-26T00:01:40;21.27;;;10.93;;
2213;SDS011;1113;42.018;23.986;2022-10-26T00:04:06;16.23;;;8.70;;
2213;SDS011;1113;42.018;23.986;2022-10-26T00:06:33;15.67;;;8.90;;
2213;SDS011;1113;42.018;23.986;2022-10-26T00:08:59;15.30;;;9.40;;
2213;SDS011;1113;42.018;23.986;2022-10-26T00:11:27;17.43;;;7.77;;
2213;SDS011;1113;42.018;23.986;2022-10-26T00:13:54;16.80;;;7.87;;
2213;SDS011;1113;42.018;23.986;2022-10-26T00:16:21;14.47;;;8.77;;
2213;SDS011;1113;42.018;23.986;2022-10-26T00:18:48;14.13;;;6.97;;
2213;SDS011;1113;42.018;23.986;2022-10-26T00:21:15;13.67;;;8.00;;
2213;SDS011;1113;42.018;23.986;2022-10-26T00:23:41;15.50;;;6.80;;
2213;SDS011;1113;42.018;23.986;2022-10-26T00:26:08;18.23;;;7.00;;
2213;SDS011;1113;42.018;23.986;2022-10-26T00:28:36;19.77;;;7.80;;
2213;SDS011;1113;42.018;23.986;2022-10-26T00:31:03;16.43;;;7.60;;
2213;SDS011;1113;42.018;23.986;2022-10-26T00:33:31;25.23;;;10.43;;
2213;SDS011;1113;42.018;23.986;2022-10-26T00:35:57;22.57;;;10.70;;
2213;SDS011;1113;42.018;23.986;2022-10-26T00:38:24;15.93;;;9.10;;
2213;SDS011;1113;42.018;23.986;2022-10-26T00:40:50;17.70;;;9.00;;
2213;SDS011;1113;42.018;23.986;2022-10-26T00:45:59;16.50;;;8.53;;
2213;SDS011;1113;42.018;23.986;2022-10-26T00:48:27;24.73;;;9.40;;
2213;SDS011;1113;42.018;23.986;2022-10-26T00:50:54;19.27;;;8.77;;
2213;SDS011;1113;42.018;23.986;2022-10-26T00:53:21;16.47;;;8.60;;
2213;SDS011;1113;42.018;23.986;2022-10-26T00:55:49;15.80;;;9.50;;
2213;SDS011;1113;42.018;23.986;2022-10-26T00:58:16;18.10;;;9.50;;
2213;SDS011;1113;42.018;23.986;2022-10-26T01:00:43;16.83;;;8.40;;
2213;SDS011;1113;42.018;23.986;2022-10-26T01:03:11;14.93;;;8.23;;
2213;SDS011;1113;42.018;23.986;2022-10-26T01:05:39;18.00;;;9.00;;
2213;SDS011;1113;42.018;23.986;2022-10-26T01:08:06;14.07;;;9.20;;
2213;SDS011;1113;42.018;23.986;2022-10-26T01:10:33;15.37;;;9.60;;
2213;SDS011;1113;42.018;23.986;2022-10-26T01:13:01;19.00;;;9.60;;
2213;SDS011;1113;42.018;23.986;2022-10-26T01:15:34;16.27;;;9.60;;
2213;SDS011;1113;42.018;23.986;2022-10-26T01:18:05;15.80;;;9.00;;
2213;SDS011;1113;42.018;23.986;2022-10-26T01:23:20;12.90;;;8.83;;
2213;SDS011;1113;42.018;23.986;2022-10-26T01:25:56;17.47;;;10.17;;
2213;SDS011;1113;42.018;23.986;2022-10-26T01:28:30;19.60;;;9.80;;
2213;SDS011;1113;42.018;23.986;2022-10-26T01:31:00;18.03;;;11.03;;
2213;SDS011;1113;42.018;23.986;2022-10-26T01:33:32;17.13;;;11.10;;
2213;SDS011;1113;42.018;23.986;2022-10-26T01:36:02;23.07;;;11.80;;
2213;SDS011;1113;42.018;23.986;2022-10-26T01:38:31;22.57;;;11.77;;
2213;SDS011;1113;42.018;23.986;2022-10-26T01:40:59;14.53;;;9.07;;
2213;SDS011;1113;42.018;23.986;2022-10-26T01:43:29;17.40;;;10.50;;
2213;SDS011;1113;42.018;23.986;2022-10-26T01:45:56;18.17;;;12.03;;
2213;SDS011;1113;42.018;23.986;2022-10-26T01:48:25;23.53;;;13.07;;
2213;SDS011;1113;42.018;23.986;2022-10-26T01:50:53;22.53;;;13.00;;
2213;SDS011;1113;42.018;23.986;2022-10-26T01:53:20;25.70;;;14.37;;
2213;SDS011;1113;42.018;23.986;2022-10-26T01:55:47;24.33;;;13.83;;
2213;SDS011;1113;42.018;23.986;2022-10-26T01:58:38;25.27;;;15.27;;
2213;SDS011;1113;42.018;23.986;2022-10-26T02:01:09;23.50;;;13.87;;
2213;SDS011;1113;42.018;23.986;2022-10-26T02:03:39;25.10;;;16.80;;
2213;SDS011;1113;42.018;23.986;2022-10-26T02:06:10;36.80;;;21.40;;
2213;SDS011;1113;42.018;23.986;2022-10-26T02:08:51;41.93;;;22.63;;
2213;SDS011;1113;42.018;23.986;2022-10-26T02:11:22;34.40;;;22.50;;
2213;SDS011;1113;42.018;23.986;2022-10-26T02:13:51;41.30;;;21.00;;
2213;SDS011;1113;42.018;23.986;2022-10-26T02:16:20;39.80;;;24.03;;
2213;SDS011;1113;42.018;23.986;2022-10-26T02:18:52;41.53;;;23.90;;
2213;SDS011;1113;42.018;23.986;2022-10-26T02:21:21;34.20;;;22.13;;
2213;SDS011;1113;42.018;23.986;2022-10-26T02:23:50;35.20;;;21.40;;
2213;SDS011;1113;42.018;23.986;2022-10-26T02:26:19;37.00;;;21.70;;
2213;SDS011;1113;42.018;23.986;2022-10-26T02:28:48;35.70;;;19.00;;
2213;SDS011;1113;42.018;23.986;2022-10-26T02:31:16;32.03;;;19.60;;
2213;SDS011;1113;42.018;23.986;2022-10-26T02:33:45;32.70;;;21.77;;
2213;SDS011;1113;42.018;23.986;2022-10-26T02:36:15;26.70;;;18.40;;
2213;SDS011;1113;42.018;23.986;2022-10-26T02:38:43;28.53;;;20.77;;
2213;SDS011;1113;42.018;23.986;2022-10-26T02:41:10;27.47;;;19.20;;
2213;SDS011;1113;42.018;23.986;2022-10-26T02:43:40;22.37;;;17.83;;
2213;SDS011;1113;42.018;23.986;2022-10-26T02:46:10;29.73;;;18.93;;
2213;SDS011;1113;42.018;23.986;2022-10-26T02:48:38;31.43;;;19.47;;
2213;SDS011;1113;42.018;23.986;2022-10-26T02:51:07;18.90;;;13.55;;
2213;SDS011;1113;42.018;23.986;2022-10-26T02:53:37;18.00;;;12.70;;
2213;SDS011;1113;42.018;23.986;2022-10-26T02:56:06;19.30;;;12.38;;
2213;SDS011;1113;42.018;23.986;2022-10-26T02:58:36;19.60;;;11.77;;
2213;SDS011;1113;42.018;23.986;2022-10-26T03:01:03;30.30;;;14.20;;
2213;SDS011;1113;42.018;23.986;2022-10-26T03:03:30;21.23;;;12.13;;
2213;SDS011;1113;42.018;23.986;2022-10-26T03:05:56;17.30;;;11.80;;
2213;SDS011;1113;42.018;23.986;2022-10-26T03:08:23;19.23;;;12.00;;
2213;SDS011;1113;42.018;23.986;2022-10-26T03:10:50;25.17;;;15.30;;
2213;SDS011;1113;42.018;23.986;2022-10-26T03:13:17;16.13;;;13.37;;
2213;SDS011;1113;42.018;23.986;2022-10-26T03:15:43;20.40;;;15.60;;
2213;SDS011;1113;42.018;23.986;2022-10-26T03:18:10;18.57;;;13.07;;
2213;SDS011;1113;42.018;23.986;2022-10-26T03:20:36;18.57;;;11.87;;
2213;SDS011;1113;42.018;23.986;2022-10-26T03:23:03;24.63;;;13.52;;
2213;SDS011;1113;42.018;23.986;2022-10-26T03:25:29;20.90;;;15.63;;
2213;SDS011;1113;42.018;23.986;2022-10-26T03:27:58;19.10;;;10.93;;
2213;SDS011;1113;42.018;23.986;2022-10-26T03:30:25;21.20;;;12.50;;
2213;SDS011;1113;42.018;23.986;2022-10-26T03:32:52;28.77;;;18.33;;
2213;SDS011;1113;42.018;23.986;2022-10-26T03:35:18;25.90;;;17.58;;
2213;SDS011;1113;42.018;23.986;2022-10-26T03:37:45;23.47;;;17.73;;
2213;SDS011;1113;42.018;23.986;2022-10-26T03:40:11;26.10;;;15.83;;
2213;SDS011;1113;42.018;23.986;2022-10-26T03:42:38;23.80;;;16.23;;
2213;SDS011;1113;42.018;23.986;2022-10-26T03:45:07;27.77;;;19.90;;
2213;SDS011;1113;42.018;23.986;2022-10-26T03:47:34;33.50;;;21.63;;
2213;SDS011;1113;42.018;23.986;2022-10-26T03:50:05;25.33;;;19.98;;
2213;SDS011;1113;42.018;23.986;2022-10-26T03:52:32;30.57;;;22.97;;
2213;SDS011;1113;42.018;23.986;2022-10-26T03:54:58;34.43;;;23.30;;
2213;SDS011;1113;42.018;23.986;2022-10-26T03:57:25;29.38;;;21.27;;
2213;SDS011;1113;42.018;23.986;2022-10-26T03:59:51;34.55;;;20.75;;
2213;SDS011;1113;42.018;23.986;2022-10-26T04:02:19;31.03;;;18.70;;
2213;SDS011;1113;42.018;23.986;2022-10-26T04:04:45;36.03;;;20.75;;
2213;SDS011;1113;42.018;23.986;2022-10-26T04:07:12;33.23;;;22.00;;
2213;SDS011;1113;42.018;23.986;2022-10-26T04:09:38;41.30;;;25.60;;
2213;SDS011;1113;42.018;23.986;2022-10-26T04:12:05;36.03;;;22.27;;
2213;SDS011;1113;42.018;23.986;2022-10-26T04:14:32;35.28;;;23.65;;
2213;SDS011;1113;42.018;23.986;2022-10-26T04:16:58;39.20;;;25.75;;
2213;SDS011;1113;42.018;23.986;2022-10-26T04:19:26;35.95;;;24.45;;
2213;SDS011;1113;42.018;23.986;2022-10-26T04:21:53;38.10;;;22.90;;
2213;SDS011;1113;42.018;23.986;2022-10-26T04:24:19;33.00;;;19.83;;
2213;SDS011;1113;42.018;23.986;2022-10-26T04:26:46;30.35;;;19.70;;
2213;SDS011;1113;42.018;23.986;2022-10-26T04:29:12;28.77;;;20.00;;
2213;SDS011;1113;42.018;23.986;2022-10-26T04:31:39;32.70;;;21.13;;
2213;SDS011;1113;42.018;23.986;2022-10-26T04:34:07;24.70;;;18.20;;
2213;SDS011;1113;42.018;23.986;2022-10-26T04:36:35;32.33;;;20.35;;
2213;SDS011;1113;42.018;23.986;2022-10-26T04:39:01;30.30;;;19.45;;
2213;SDS011;1113;42.018;23.986;2022-10-26T04:41:28;31.50;;;23.13;;
2213;SDS011;1113;42.018;23.986;2022-10-26T04:43:54;27.65;;;17.58;;
2213;SDS011;1113;42.018;23.986;2022-10-26T04:46:21;33.10;;;21.08;;
2213;SDS011;1113;42.018;23.986;2022-10-26T04:48:47;32.20;;;18.25;;
2213;SDS011;1113;42.018;23.986;2022-10-26T04:51:14;34.47;;;18.08;;
2213;SDS011;1113;42.018;23.986;2022-10-26T04:53:42;46.15;;;19.88;;
2213;SDS011;1113;42.018;23.986;2022-10-26T04:56:08;36.00;;;19.67;;
2213;SDS011;1113;42.018;23.986;2022-10-26T04:58:35;32.85;;;18.10;;
2213;SDS011;1113;42.018;23.986;2022-10-26T05:01:01;35.53;;;20.63;;
2213;SDS011;1113;42.018;23.986;2022-10-26T05:03:28;37.10;;;20.30;;
2213;SDS011;1113;42.018;23.986;2022-10-26T05:05:56;34.03;;;18.60;;
2213;SDS011;1113;42.018;23.986;2022-10-26T05:08:23;54.55;;;31.30;;
2213;SDS011;1113;42.018;23.986;2022-10-26T05:10:51;46.20;;;26.52;;
2213;SDS011;1113;42.018;23.986;2022-10-26T05:13:19;55.83;;;33.15;;
2213;SDS011;1113;42.018;23.986;2022-10-26T05:15:45;34.35;;;19.58;;
2213;SDS011;1113;42.018;23.986;2022-10-26T05:18:12;54.45;;;31.60;;
2213;SDS011;1113;42.018;23.986;2022-10-26T05:20:38;79.65;;;49.15;;
2213;SDS011;1113;42.018;23.986;2022-10-26T05:23:05;68.50;;;38.30;;
2213;SDS011;1113;42.018;23.986;2022-10-26T05:25:33;69.35;;;43.55;;
2213;SDS011;1113;42.018;23.986;2022-10-26T05:28:04;63.20;;;40.92;;
2213;SDS011;1113;42.018;23.986;2022-10-26T05:30:32;64.10;;;36.60;;
2213;SDS011;1113;42.018;23.986;2022-10-26T05:32:59;60.13;;;37.10;;
2213;SDS011;1113;42.018;23.986;2022-10-26T05:35:28;56.38;;;37.10;;
2213;SDS011;1113;42.018;23.986;2022-10-26T05:37:54;53.85;;;39.15;;
2213;SDS011;1113;42.018;23.986;2022-10-26T05:40:21;71.73;;;42.30;;
2213;SDS011;1113;42.018;23.986;2022-10-26T05:42:48;64.95;;;41.63;;
2213;SDS011;1113;42.018;23.986;2022-10-26T05:45:16;75.55;;;47.00;;
2213;SDS011;1113;42.018;23.986;2022-10-26T05:47:43;77.32;;;49.47;;
2213;SDS011;1113;42.018;23.986;2022-10-26T05:50:10;81.18;;;48.80;;
2213;SDS011;1113;42.018;23.986;2022-10-26T05:52:37;79.55;;;49.15;;
2213;SDS011;1113;42.018;23.986;2022-10-26T05:55:05;83.00;;;49.50;;
2213;SDS011;1113;42.018;23.986;2022-10-26T05:57:31;87.43;;;52.83;;
2213;SDS011;1113;42.018;23.986;2022-10-26T05:59:58;91.07;;;53.20;;
2213;SDS011;1113;42.018;23.986;2022-10-26T06:02:28;80.27;;;49.87;;
2213;SDS011;1113;42.018;23.986;2022-10-26T06:04:56;81.55;;;52.25;;
2213;SDS011;1113;42.018;23.986;2022-10-26T06:07:30;77.30;;;48.50;;
2213;SDS011;1113;42.018;23.986;2022-10-26T06:09:57;79.93;;;47.73;;
2213;SDS011;1113;42.018;23.986;2022-10-26T06:12:24;76.23;;;47.03;;
2213;SDS011;1113;42.018;23.986;2022-10-26T06:14:51;79.40;;;48.30;;
2213;SDS011;1113;42.018;23.986;2022-10-26T06:17:24;75.47;;;49.40;;
2213;SDS011;1113;42.018;23.986;2022-10-26T06:19:58;67.37;;;46.00;;
2213;SDS011;1113;42.018;23.986;2022-10-26T06:22:32;83.73;;;44.47;;
2213;SDS011;1113;42.018;23.986;2022-10-26T06:25:08;68.33;;;45.00;;
2213;SDS011;1113;42.018;23.986;2022-10-26T06:27:37;59.07;;;41.43;;
2213;SDS011;1113;42.018;23.986;2022-10-26T06:30:08;56.00;;;37.20;;
2213;SDS011;1113;42.018;23.986;2022-10-26T06:32:36;51.73;;;35.03;;
2213;SDS011;1113;42.018;23.986;2022-10-26T06:35:09;50.97;;;35.93;;
2213;SDS011;1113;42.018;23.986;2022-10-26T06:37:38;56.17;;;40.80;;
2213;SDS011;1113;42.018;23.986;2022-10-26T06:40:08;47.10;;;34.37;;
2213;SDS011;1113;42.018;23.986;2022-10-26T06:42:35;56.60;;;41.47;;
2213;SDS011;1113;42.018;23.986;2022-10-26T06:45:05;59.07;;;42.07;;
2213;SDS011;1113;42.018;23.986;2022-10-26T06:47:33;51.97;;;35.70;;
2213;SDS011;1113;42.018;23.986;2022-10-26T06:50:01;41.03;;;30.60;;
2213;SDS011;1113;42.018;23.986;2022-10-26T06:52:34;39.73;;;26.20;;
2213;SDS011;1113;42.018;23.986;2022-10-26T06:55:03;42.93;;;23.63;;
2213;SDS011;1113;42.018;23.986;2022-10-26T06:57:31;34.50;;;19.30;;
2213;SDS011;1113;42.018;23.986;2022-10-26T07:00:00;38.27;;;20.43;;
2213;SDS011;1113;42.018;23.986;2022-10-26T07:02:29;44.27;;;22.17;;
2213;SDS011;1113;42.018;23.986;2022-10-26T07:04:56;39.37;;;20.80;;
2213;SDS011;1113;42.018;23.986;2022-10-26T07:07:23;28.83;;;18.47;;
2213;SDS011;1113;42.018;23.986;2022-10-26T07:09:51;40.53;;;17.20;;
2213;SDS011;1113;42.018;23.986;2022-10-26T07:12:18;39.50;;;19.40;;
2213;SDS011;1113;42.018;23.986;2022-10-26T07:14:45;35.60;;;19.77;;
2213;SDS011;1113;42.018;23.986;2022-10-26T07:17:12;32.20;;;19.17;;
2213;SDS011;1113;42.018;23.986;2022-10-26T07:19:38;31.65;;;21.58;;
2213;SDS011;1113;42.018;23.986;2022-10-26T07:22:07;47.00;;;32.73;;
2213;SDS011;1113;42.018;23.986;2022-10-26T07:24:33;47.30;;;33.83;;
2213;SDS011;1113;42.018;23.986;2022-10-26T07:27:01;46.60;;;29.20;;
2213;SDS011;1113;42.018;23.986;2022-10-26T07:29:27;35.00;;;24.10;;
2213;SDS011;1113;42.018;23.986;2022-10-26T07:31:54;35.50;;;24.90;;
2213;SDS011;1113;42.018;23.986;2022-10-26T07:34:20;31.57;;;20.20;;
2213;SDS011;1113;42.018;23.986;2022-10-26T07:36:47;32.60;;;20.80;;
2213;SDS011;1113;42.018;23.986;2022-10-26T07:39:15;40.17;;;21.53;;
2213;SDS011;1113;42.018;23.986;2022-10-26T07:41:42;30.50;;;21.57;;
2213;SDS011;1113;42.018;23.986;2022-10-26T07:44:11;40.87;;;24.40;;
2213;SDS011;1113;42.018;23.986;2022-10-26T07:46:37;37.57;;;23.03;;
2213;SDS011;1113;42.018;23.986;2022-10-26T07:49:04;32.37;;;20.60;;
2213;SDS011;1113;42.018;23.986;2022-10-26T07:51:30;38.07;;;23.03;;
2213;SDS011;1113;42.018;23.986;2022-10-26T07:53:57;31.30;;;22.97;;
2213;SDS011;1113;42.018;23.986;2022-10-26T07:56:23;31.33;;;21.30;;
2213;SDS011;1113;42.018;23.986;2022-10-26T07:58:51;34.33;;;21.30;;
2213;SDS011;1113;42.018;23.986;2022-10-26T08:01:19;36.77;;;21.20;;
2213;SDS011;1113;42.018;23.986;2022-10-26T08:03:45;34.30;;;20.10;;
2213;SDS011;1113;42.018;23.986;2022-10-26T08:06:12;37.67;;;23.33;;
2213;SDS011;1113;42.018;23.986;2022-10-26T08:08:38;37.97;;;28.43;;
2213;SDS011;1113;42.018;23.986;2022-10-26T08:11:05;30.13;;;23.50;;
2213;SDS011;1113;42.018;23.986;2022-10-26T08:13:31;30.23;;;21.20;;
2213;SDS011;1113;42.018;23.986;2022-10-26T08:16:00;47.80;;;31.53;;
2213;SDS011;1113;42.018;23.986;2022-10-26T08:18:28;47.40;;;29.73;;
2213;SDS011;1113;42.018;23.986;2022-10-26T08:21:00;29.40;;;18.47;;
2213;SDS011;1113;42.018;23.986;2022-10-26T08:23:27;37.83;;;18.90;;
2213;SDS011;1113;42.018;23.986;2022-10-26T08:25:56;20.50;;;11.70;;
2213;SDS011;1113;42.018;23.986;2022-10-26T08:28:23;27.27;;;12.20;;
2213;SDS011;1113;42.018;23.986;2022-10-26T08:30:49;17.03;;;10.70;;
2213;SDS011;1113;42.018;23.986;2022-10-26T08:33:16;17.07;;;9.40;;
2213;SDS011;1113;42.018;23.986;2022-10-26T08:35:44;13.87;;;7.20;;
2213;SDS011;1113;42.018;23.986;2022-10-26T08:38:10;12.93;;;7.00;;
2213;SDS011;1113;42.018;23.986;2022-10-26T08:40:37;20.63;;;6.80;;
2213;SDS011;1113;42.018;23.986;2022-10-26T08:43:11;11.80;;;6.50;;
2213;SDS011;1113;42.018;23.986;2022-10-26T08:45:43;19.03;;;6.60;;
2213;SDS011;1113;42.018;23.986;2022-10-26T08:48:12;17.33;;;6.57;;
2213;SDS011;1113;42.018;23.986;2022-10-26T08:50:40;15.90;;;6.97;;
2213;SDS011;1113;42.018;23.986;2022-10-26T08:53:13;16.03;;;6.70;;
2213;SDS011;1113;42.018;23.986;2022-10-26T08:55:43;11.37;;;5.90;;
2213;SDS011;1113;42.018;23.986;2022-10-26T08:58:12;12.97;;;6.43;;
2213;SDS011;1113;42.018;23.986;2022-10-26T09:00:40;13.00;;;7.50;;
2213;SDS011;1113;42.018;23.986;2022-10-26T09:03:10;47.20;;;9.60;;
2213;SDS011;1113;42.018;23.986;2022-10-26T09:05:40;18.77;;;8.17;;
2213;SDS011;1113;42.018;23.986;2022-10-26T09:08:13;10.87;;;6.10;;
2213;SDS011;1113;42.018;23.986;2022-10-26T09:10:46;17.80;;;7.60;;
2213;SDS011;1113;42.018;23.986;2022-10-26T09:13:17;30.60;;;14.10;;
2213;SDS011;1113;42.018;23.986;2022-10-26T09:15:51;20.30;;;10.57;;
2213;SDS011;1113;42.018;23.986;2022-10-26T09:18:22;17.53;;;7.60;;
2213;SDS011;1113;42.018;23.986;2022-10-26T09:20:57;17.13;;;6.00;;
2213;SDS011;1113;42.018;23.986;2022-10-26T09:23:33;21.30;;;10.00;;
2213;SDS011;1113;42.018;23.986;2022-10-26T09:26:04;14.77;;;7.83;;
2213;SDS011;1113;42.018;23.986;2022-10-26T09:28:35;14.53;;;7.53;;
2213;SDS011;1113;42.018;23.986;2022-10-26T09:31:03;18.87;;;7.13;;
2213;SDS011;1113;42.018;23.986;2022-10-26T09:33:30;18.07;;;9.03;;
2213;SDS011;1113;42.018;23.986;2022-10-26T09:36:00;16.90;;;8.77;;
2213;SDS011;1113;42.018;23.986;2022-10-26T09:38:27;15.73;;;9.60;;
2213;SDS011;1113;42.018;23.986;2022-10-26T09:40:57;19.03;;;9.17;;
2213;SDS011;1113;42.018;23.986;2022-10-26T09:43:25;15.90;;;8.97;;
2213;SDS011;1113;42.018;23.986;2022-10-26T09:45:54;20.53;;;8.97;;
2213;SDS011;1113;42.018;23.986;2022-10-26T09:48:21;14.50;;;6.60;;
2213;SDS011;1113;42.018;23.986;2022-10-26T09:50:52;12.10;;;6.57;;
2213;SDS011;1113;42.018;23.986;2022-10-26T09:53:21;12.63;;;6.30;;
2213;SDS011;1113;42.018;23.986;2022-10-26T09:55:48;16.80;;;7.37;;
2213;SDS011;1113;42.018;23.986;2022-10-26T09:58:17;14.27;;;6.80;;
2213;SDS011;1113;42.018;23.986;2022-10-26T10:00:45;14.97;;;6.27;;
2213;SDS011;1113;42.018;23.986;2022-10-26T10:03:17;13.50;;;5.67;;
2213;SDS011;1113;42.018;23.986;2022-10-26T10:05:43;13.13;;;5.93;;
2213;SDS011;1113;42.018;23.986;2022-10-26T10:08:13;13.17;;;5.17;;
2213;SDS011;1113;42.018;23.986;2022-10-26T10:10:50;16.90;;;5.83;;
2213;SDS011;1113;42.018;23.986;2022-10-26T10:13:20;12.10;;;5.23;;
2213;SDS011;1113;42.018;23.986;2022-10-26T10:15:50;13.43;;;5.50;;
2213;SDS011;1113;42.018;23.986;2022-10-26T10:18:17;18.23;;;5.43;;
2213;SDS011;1113;42.018;23.986;2022-10-26T10:20:48;11.30;;;4.53;;
2213;SDS011;1113;42.018;23.986;2022-10-26T10:23:22;10.70;;;4.90;;
2213;SDS011;1113;42.018;23.986;2022-10-26T10:25:50;13.30;;;4.80;;
2213;SDS011;1113;42.018;23.986;2022-10-26T10:28:25;10.23;;;4.67;;
2213;SDS011;1113;42.018;23.986;2022-10-26T10:30:52;8.50;;;4.10;;
2213;SDS011;1113;42.018;23.986;2022-10-26T10:33:21;16.10;;;5.97;;
2213;SDS011;1113;42.018;23.986;2022-10-26T10:35:48;10.20;;;4.50;;
2213;SDS011;1113;42.018;23.986;2022-10-26T10:38:16;11.80;;;4.87;;
2213;SDS011;1113;42.018;23.986;2022-10-26T10:40:48;8.30;;;4.30;;
2213;SDS011;1113;42.018;23.986;2022-10-26T10:43:15;8.63;;;4.03;;
2213;SDS011;1113;42.018;23.986;2022-10-26T10:45:46;12.37;;;4.90;;
2213;SDS011;1113;42.018;23.986;2022-10-26T10:48:15;13.80;;;5.73;;
2213;SDS011;1113;42.018;23.986;2022-10-26T10:50:50;11.33;;;5.17;;
2213;SDS011;1113;42.018;23.986;2022-10-26T10:53:17;11.57;;;4.23;;
2213;SDS011;1113;42.018;23.986;2022-10-26T10:55:50;13.17;;;4.73;;
2213;SDS011;1113;42.018;23.986;2022-10-26T10:58:18;15.60;;;4.33;;
2213;SDS011;1113;42.018;23.986;2022-10-26T11:00:48;8.53;;;4.30;;
2213;SDS011;1113;42.018;23.986;2022-10-26T11:03:22;17.60;;;5.43;;
2213;SDS011;1113;42.018;23.986;2022-10-26T11:05:54;16.20;;;6.57;;
2213;SDS011;1113;42.018;23.986;2022-10-26T11:08:25;8.83;;;3.70;;
2213;SDS011;1113;42.018;23.986;2022-10-26T11:10:56;10.00;;;3.57;;
2213;SDS011;1113;42.018;23.986;2022-10-26T11:13:26;13.13;;;3.97;;
2213;SDS011;1113;42.018;23.986;2022-10-26T11:15:57;10.60;;;3.60;;
2213;SDS011;1113;42.018;23.986;2022-10-26T11:18:25;10.17;;;4.07;;
2213;SDS011;1113;42.018;23.986;2022-10-26T11:20:55;12.37;;;3.63;;
2213;SDS011;1113;42.018;23.986;2022-10-26T11:23:24;9.70;;;3.20;;
2213;SDS011;1113;42.018;23.986;2022-10-26T11:25:54;9.60;;;3.93;;
2213;SDS011;1113;42.018;23.986;2022-10-26T11:28:38;9.67;;;3.70;;
2213;SDS011;1113;42.018;23.986;2022-10-26T11:31:09;13.20;;;3.43;;
2213;SDS011;1113;42.018;23.986;2022-10-26T11:33:38;8.87;;;3.87;;
2213;SDS011;1113;42.018;23.986;2022-10-26T11:36:07;13.87;;;3.60;;
2213;SDS011;1113;42.018;23.986;2022-10-26T11:38:35;11.30;;;3.40;;
2213;SDS011;1113;42.018;23.986;2022-10-26T11:41:05;11.67;;;4.27;;
2213;SDS011;1113;42.018;23.986;2022-10-26T11:43:34;11.63;;;3.97;;
2213;SDS011;1113;42.018;23.986;2022-10-26T11:46:03;12.50;;;3.40;;
2213;SDS011;1113;42.018;23.986;2022-10-26T11:48:33;14.97;;;5.27;;
2213;SDS011;1113;42.018;23.986;2022-10-26T11:51:01;8.47;;;3.30;;
2213;SDS011;1113;42.018;23.986;2022-10-26T11:53:28;10.13;;;4.27;;
2213;SDS011;1113;42.018;23.986;2022-10-26T11:55:57;22.90;;;5.60;;
2213;SDS011;1113;42.018;23.986;2022-10-26T11:58:24;10.80;;;3.93;;
2213;SDS011;1113;42.018;23.986;2022-10-26T12:00:52;12.50;;;5.17;;
2213;SDS011;1113;42.018;23.986;2022-10-26T12:03:22;12.30;;;3.77;;
2213;SDS011;1113;42.018;23.986;2022-10-26T12:05:52;9.10;;;4.40;;
2213;SDS011;1113;42.018;23.986;2022-10-26T12:08:20;13.80;;;4.60;;
2213;SDS011;1113;42.018;23.986;2022-10-26T12:10:49;8.27;;;3.97;;
2213;SDS011;1113;42.018;23.986;2022-10-26T12:13:19;12.00;;;4.03;;
2213;SDS011;1113;42.018;23.986;2022-10-26T12:15:49;7.53;;;3.30;;
2213;SDS011;1113;42.018;23.986;2022-10-26T12:18:20;9.63;;;3.73;;
2213;SDS011;1113;42.018;23.986;2022-10-26T12:20:52;9.83;;;3.50;;
2213;SDS011;1113;42.018;23.986;2022-10-26T12:23:20;7.07;;;3.50;;
2213;SDS011;1113;42.018;23.986;2022-10-26T12:25:47;5.67;;;3.10;;
2213;SDS011;1113;42.018;23.986;2022-10-26T12:28:38;7.07;;;3.10;;
2213;SDS011;1113;42.018;23.986;2022-10-26T12:33:50;19.73;;;4.10;;
2213;SDS011;1113;42.018;23.986;2022-10-26T12:39:14;10.37;;;3.40;;
2213;SDS011;1113;42.018;23.986;2022-10-26T12:41:53;12.57;;;3.40;;
2213;SDS011;1113;42.018;23.986;2022-10-26T12:44:30;10.60;;;3.00;;
2213;SDS011;1113;42.018;23.986;2022-10-26T12:46:57;23.87;;;4.00;;
2213;SDS011;1113;42.018;23.986;2022-10-26T12:57:58;15.03;;;4.13;;
2213;SDS011;1113;42.018;23.986;2022-10-26T13:00:28;9.30;;;4.20;;
2213;SDS011;1113;42.018;23.986;2022-10-26T13:02:59;7.93;;;3.70;;
2213;SDS011;1113;42.018;23.986;2022-10-26T13:05:34;34.77;;;7.97;;
2213;SDS011;1113;42.018;23.986;2022-10-26T13:08:06;10.77;;;5.27;;
2213;SDS011;1113;42.018;23.986;2022-10-26T13:10:33;15.83;;;3.90;;
2213;SDS011;1113;42.018;23.986;2022-10-26T13:13:02;11.30;;;4.57;;
2213;SDS011;1113;42.018;23.986;2022-10-26T13:15:32;8.97;;;3.73;;
2213;SDS011;1113;42.018;23.986;2022-10-26T13:18:06;5.23;;;2.93;;
2213;SDS011;1113;42.018;23.986;2022-10-26T13:20:33;7.73;;;3.00;;
2213;SDS011;1113;42.018;23.986;2022-10-26T13:23:02;9.10;;;2.90;;
2213;SDS011;1113;42.018;23.986;2022-10-26T13:25:39;4.47;;;2.60;;
2213;SDS011;1113;42.018;23.986;2022-10-26T13:28:28;5.73;;;3.17;;
2213;SDS011;1113;42.018;23.986;2022-10-26T13:30:54;5.83;;;2.87;;
2213;SDS011;1113;42.018;23.986;2022-10-26T13:33:26;11.73;;;3.13;;
2213;SDS011;1113;42.018;23.986;2022-10-26T13:35:55;5.77;;;2.50;;
2213;SDS011;1113;42.018;23.986;2022-10-26T13:38:24;12.97;;;3.17;;
2213;SDS011;1113;42.018;23.986;2022-10-26T13:40:56;3.87;;;1.97;;
2213;SDS011;1113;42.018;23.986;2022-10-26T13:43:26;6.90;;;2.63;;
2213;SDS011;1113;42.018;23.986;2022-10-26T13:45:53;4.90;;;2.43;;
2213;SDS011;1113;42.018;23.986;2022-10-26T13:48:26;6.77;;;2.20;;
2213;SDS011;1113;42.018;23.986;2022-10-26T13:50:54;16.00;;;3.57;;
2213;SDS011;1113;42.018;23.986;2022-10-26T13:53:22;8.70;;;2.80;;
2213;SDS011;1113;42.018;23.986;2022-10-26T13:55:52;6.13;;;2.73;;
2213;SDS011;1113;42.018;23.986;2022-10-26T13:58:20;6.10;;;2.10;;
2213;SDS011;1113;42.018;23.986;2022-10-26T14:01:03;6.90;;;2.60;;
2213;SDS011;1113;42.018;23.986;2022-10-26T14:03:30;9.60;;;2.90;;
2213;SDS011;1113;42.018;23.986;2022-10-26T14:05:56;10.63;;;3.43;;
2213;SDS011;1113;42.018;23.986;2022-10-26T14:08:23;8.80;;;2.73;;
2213;SDS011;1113;42.018;23.986;2022-10-26T14:10:51;7.67;;;2.80;;
2213;SDS011;1113;42.018;23.986;2022-10-26T14:13:20;4.17;;;2.83;;
2213;SDS011;1113;42.018;23.986;2022-10-26T14:15:48;6.43;;;3.30;;
2213;SDS011;1113;42.018;23.986;2022-10-26T14:18:17;6.27;;;3.03;;
2213;SDS011;1113;42.018;23.986;2022-10-26T14:20:46;5.93;;;2.80;;
2213;SDS011;1113;42.018;23.986;2022-10-26T14:23:26;7.10;;;3.77;;
2213;SDS011;1113;42.018;23.986;2022-10-26T14:25:52;7.03;;;4.23;;
2213;SDS011;1113;42.018;23.986;2022-10-26T14:28:20;14.90;;;8.93;;
2213;SDS011;1113;42.018;23.986;2022-10-26T14:30:47;15.17;;;9.00;;
2213;SDS011;1113;42.018;23.986;2022-10-26T14:33:22;14.30;;;7.93;;
2213;SDS011;1113;42.018;23.986;2022-10-26T14:35:50;11.93;;;6.50;;
2213;SDS011;1113;42.018;23.986;2022-10-26T14:38:18;22.90;;;6.50;;
2213;SDS011;1113;42.018;23.986;2022-10-26T14:40:45;14.13;;;4.50;;
2213;SDS011;1113;42.018;23.986;2022-10-26T14:43:15;63.20;;;10.20;;
2213;SDS011;1113;42.018;23.986;2022-10-26T14:45:45;15.67;;;4.90;;
2213;SDS011;1113;42.018;23.986;2022-10-26T14:48:19;10.87;;;2.83;;
2213;SDS011;1113;42.018;23.986;2022-10-26T14:50:57;7.37;;;3.40;;
2213;SDS011;1113;42.018;23.986;2022-10-26T14:53:27;16.70;;;4.90;;
2213;SDS011;1113;42.018;23.986;2022-10-26T14:55:55;30.20;;;7.50;;
2213;SDS011;1113;42.018;23.986;2022-10-26T14:58:23;22.47;;;5.60;;
2213;SDS011;1113;42.018;23.986;2022-10-26T15:03:32;49.37;;;8.70;;
2213;SDS011;1113;42.018;23.986;2022-10-26T15:08:42;45.27;;;13.67;;
2213;SDS011;1113;42.018;23.986;2022-10-26T15:11:11;65.50;;;9.93;;
2213;SDS011;1113;42.018;23.986;2022-10-26T15:13:39;32.63;;;7.93;;
2213;SDS011;1113;42.018;23.986;2022-10-26T15:16:07;9.93;;;6.00;;
2213;SDS011;1113;42.018;23.986;2022-10-26T15:18:35;12.03;;;7.47;;